Česky Dansk Deutsch English Español Suomi Français Magyar Italiano Nederlands norsk Polski Português svenska Türkçe

 

Het Weer

Vidsel (Zweden)

20:50, 21 augustus 2016 (GMT)

NWNNE
WE
SWSSE
Home            
Vidsel Jokkmokk Lulea / Kallax Skelleftea Airport Gallivare Gunnarn Lycksele Pello Kemi Kiruna Airport Umea Flygplats Hailuoto Oulu Rovaniemi Mo I Rana / Rossvoll Kruunupyy Ornskoldsvik Airport Kittila Bodo Vi Narvik Iii Enontekio Mosjoen Kjaerstad Pudasjarvi

Om een weerknop op uw website of weblog te plaatsen, copieer onderstaande code en plak die in uw pagina. In het eerste vakje staat HTML-code, in het tweede vakje UBB-code.


Add to Google

Details

Wind speed:1 bf, 2 kn, 1.0 m/s, 2.3 miles/h, 3.7 km/h
Wind direction:Variable
Visibility:Greater than 10000 m, 10 km, 32800 ft, 6.2 miles
Clouds:Ein wenig bewölkt at 15000 ft, 4572 m
Temperature:13°C, 55°F
Dew-point:12°C, 54°F
Atmospheric pressure:1017 hPa, 762.8 mmHg, 30.03 inHg, 1.004 atm
Relative humidity:93.6 %
METAR:ESPE 212050Z AUTO VRB02KT 9999 FEW150 13/12 Q1017

Snelkoppelingen

Actuele weersinformatie van de hele wereld. Voeg locaties toe met het plus (+) symbool. Deze snelkoppelingen kunnen worden toegevoegd aan Google.

Lid van de Technetium groep

website free tracking
StatCounter NetStat W3C Validator

26-09-2020 05:49:24
astro.technetium.be money.technetium.be phote.technetium.be tafeltennistafel.technetium.be www.ligfiets.net